createdAt,value
2022-10-05T00:00:00.302Z,6.6
2022-10-05T00:05:00.644Z,6.6
2022-10-05T00:10:00.357Z,6.6
2022-10-05T00:15:00.291Z,6.6
2022-10-05T00:20:00.261Z,6.6
2022-10-05T00:25:00.620Z,6.6
2022-10-05T00:30:00.332Z,6.5
2022-10-05T00:35:00.268Z,6.5
2022-10-05T00:40:00.269Z,6.5
2022-10-05T00:45:00.283Z,6.4
2022-10-05T00:50:00.278Z,6.5
2022-10-05T00:55:00.604Z,6.5
2022-10-05T01:00:00.346Z,6.5
2022-10-05T01:05:00.335Z,6.5
2022-10-05T01:10:00.359Z,6.4
2022-10-05T01:15:00.330Z,6.4
2022-10-05T01:20:00.273Z,6.4
2022-10-05T01:25:00.268Z,6.4
2022-10-05T01:30:00.276Z,6.4
2022-10-05T01:35:00.265Z,6.4
2022-10-05T01:40:00.276Z,6.4
2022-10-05T01:45:00.278Z,6.3
2022-10-05T01:50:00.273Z,6.3
2022-10-05T01:55:00.267Z,6.3
2022-10-05T02:00:00.271Z,6.4
2022-10-05T02:05:02.243Z,6.3
2022-10-05T02:10:00.266Z,6.3
2022-10-05T02:15:00.263Z,6.3
2022-10-05T02:20:00.271Z,6.3
2022-10-05T02:25:00.265Z,6.3
2022-10-05T02:30:00.273Z,6.3
2022-10-05T02:35:00.267Z,6.2
2022-10-05T02:40:00.285Z,6.2
2022-10-05T02:45:00.304Z,6.2
2022-10-05T02:50:00.463Z,6.2
2022-10-05T02:55:00.485Z,6.2
2022-10-05T03:00:00.265Z,6.2
2022-10-05T03:05:00.256Z,6.2
2022-10-05T03:10:01.330Z,6.2
2022-10-05T03:15:00.270Z,6.2
2022-10-05T03:20:00.274Z,6.2
2022-10-05T03:25:00.267Z,6.2
2022-10-05T03:30:00.272Z,6.2
2022-10-05T03:35:00.272Z,6.3
2022-10-05T03:40:00.267Z,6.4
2022-10-05T03:45:00.273Z,6.4
2022-10-05T03:50:00.266Z,6.4
2022-10-05T03:55:00.266Z,6.4
2022-10-05T04:00:00.269Z,6.3
2022-10-05T04:05:00.268Z,6.3
2022-10-05T04:10:00.267Z,6.2
2022-10-05T04:15:00.271Z,6.2
2022-10-05T04:20:00.270Z,6.2
2022-10-05T04:25:00.264Z,6.1
2022-10-05T04:30:00.289Z,6.1
2022-10-05T04:35:00.625Z,6.1
2022-10-05T04:40:00.422Z,6.1
2022-10-05T04:45:00.271Z,6.2
2022-10-05T04:50:00.268Z,6.1
2022-10-05T04:55:00.272Z,6.1
2022-10-05T05:00:00.267Z,6.1
2022-10-05T05:05:00.284Z,6.1
2022-10-05T05:10:00.262Z,6.1
2022-10-05T05:15:00.259Z,6.1
2022-10-05T05:20:00.295Z,6.1
2022-10-05T05:25:00.292Z,6.1
2022-10-05T05:30:00.267Z,6.1
2022-10-05T05:35:00.269Z,6.1
2022-10-05T05:40:00.274Z,6.2
2022-10-05T05:45:00.631Z,6.2
2022-10-05T05:50:05.723Z,6.2
2022-10-05T05:55:00.263Z,6.2
2022-10-05T06:00:00.272Z,6.2
2022-10-05T06:05:00.271Z,6.3
2022-10-05T06:10:00.277Z,6.4
2022-10-05T06:15:00.265Z,6.5
2022-10-05T06:20:04.825Z,6.5
2022-10-05T06:25:00.275Z,6.6
2022-10-05T06:30:00.269Z,6.6
2022-10-05T06:35:00.262Z,6.7
2022-10-05T06:40:01.330Z,6.7
2022-10-05T06:45:00.271Z,6.9
2022-10-05T06:50:00.273Z,7.1
2022-10-05T06:55:00.266Z,7.3
2022-10-05T07:00:00.292Z,7.5
2022-10-05T07:05:00.279Z,7.6
2022-10-05T07:10:00.285Z,7.8
2022-10-05T07:15:00.628Z,8
2022-10-05T07:20:00.339Z,8.2
2022-10-05T07:25:00.264Z,8.5
2022-10-05T07:30:00.314Z,8.9
2022-10-05T07:35:00.269Z,9.2
2022-10-05T07:40:01.043Z,9.4
2022-10-05T07:45:00.265Z,9.7
2022-10-05T07:50:00.266Z,10.1
2022-10-05T07:55:00.269Z,10.5
2022-10-05T08:00:00.632Z,10.3
2022-10-05T08:05:00.338Z,9.7
2022-10-05T08:10:00.284Z,9.5
2022-10-05T08:15:00.653Z,9.3
2022-10-05T08:25:00.527Z,9.4
2022-10-05T08:30:00.623Z,9.6
2022-10-05T08:35:00.371Z,9.6
2022-10-05T08:40:00.271Z,9.9
2022-10-05T08:45:00.350Z,9.7
2022-10-05T08:50:00.587Z,9.3
2022-10-05T08:55:00.616Z,9.6
2022-10-05T09:00:00.572Z,9.6
2022-10-05T09:05:00.341Z,9.9
2022-10-05T09:10:01.800Z,9.3
2022-10-05T09:15:24.092Z,9.3
2022-10-05T09:20:00.380Z,9.1
2022-10-05T09:25:00.309Z,9.7
2022-10-05T09:30:00.593Z,9.6
2022-10-05T09:35:00.321Z,9.3
2022-10-05T09:40:01.423Z,9.4
2022-10-05T09:45:00.377Z,9.4
2022-10-05T09:50:00.381Z,9.5
2022-10-05T09:55:00.266Z,9.4
2022-10-05T10:00:00.587Z,9.7
2022-10-05T10:05:00.395Z,9.8
2022-10-05T10:10:00.448Z,9.5
2022-10-05T10:15:02.764Z,9.7
2022-10-05T10:20:00.374Z,10
2022-10-05T10:25:00.259Z,9.7
2022-10-05T10:30:00.263Z,9.9
2022-10-05T10:35:00.591Z,9.9
2022-10-05T10:40:00.389Z,10.2
2022-10-05T10:45:00.333Z,10.2
2022-10-05T10:50:00.286Z,9.9
2022-10-05T10:55:00.605Z,10.1
2022-10-05T11:00:00.407Z,10.1
2022-10-05T11:05:00.298Z,10
2022-10-05T11:10:00.599Z,10.2
2022-10-05T11:15:00.331Z,10.2
2022-10-05T11:20:04.321Z,10.2
2022-10-05T11:25:00.338Z,10
2022-10-05T11:30:00.273Z,10.3
2022-10-05T11:35:00.281Z,10.4
2022-10-05T11:40:00.269Z,10.2
2022-10-05T11:45:00.288Z,10.3
2022-10-05T11:50:00.279Z,10.1
2022-10-05T11:55:11.909Z,10.1
2022-10-05T12:00:00.272Z,10.3
2022-10-05T12:05:00.263Z,9.8
2022-10-05T12:10:00.265Z,10
2022-10-05T12:15:00.265Z,10
2022-10-05T12:20:00.267Z,10
2022-10-05T12:25:00.629Z,10
2022-10-05T12:30:00.343Z,10
2022-10-05T12:35:02.115Z,10
2022-10-05T12:40:00.269Z,10.1
2022-10-05T12:45:00.270Z,10.1
2022-10-05T12:50:00.271Z,10.1
2022-10-05T12:55:00.271Z,10.1
2022-10-05T13:00:00.268Z,10.4
2022-10-05T13:05:00.275Z,10.2
2022-10-05T13:10:00.291Z,10.1
2022-10-05T13:15:00.255Z,10.1
2022-10-05T13:20:00.676Z,9.9
2022-10-05T13:25:00.331Z,10
2022-10-05T13:30:00.270Z,10.2
2022-10-05T13:35:00.272Z,10
2022-10-05T13:40:00.327Z,9.9
2022-10-05T13:45:00.295Z,10.2
2022-10-05T13:50:00.375Z,10.2
2022-10-05T13:55:00.272Z,10
2022-10-05T14:00:00.331Z,10.2
2022-10-05T14:05:00.267Z,10
2022-10-05T14:10:00.364Z,9.9
2022-10-05T14:15:00.653Z,9.8
2022-10-05T14:20:00.362Z,9.8
2022-10-05T14:25:00.276Z,10
2022-10-05T14:30:00.264Z,10
2022-10-05T14:35:00.264Z,10
2022-10-05T14:40:00.267Z,10.1
2022-10-05T14:45:00.273Z,10
2022-10-05T14:50:00.262Z,10
2022-10-05T14:55:00.259Z,10
2022-10-05T15:00:00.270Z,10.1
2022-10-05T15:05:00.265Z,9.9
2022-10-05T15:10:00.269Z,10.2
2022-10-05T15:15:00.270Z,10.1
2022-10-05T15:20:00.268Z,10.2
2022-10-05T15:25:00.271Z,9.9
2022-10-05T15:30:00.268Z,10.3
2022-10-05T15:35:00.290Z,10.8
2022-10-05T15:40:00.255Z,10.2
2022-10-05T15:45:00.272Z,10.5
2022-10-05T15:50:00.276Z,11.2
2022-10-05T15:55:00.647Z,11.1
2022-10-05T16:00:00.345Z,11.1
2022-10-05T16:05:04.564Z,10.9
2022-10-05T16:10:00.274Z,10.6
2022-10-05T16:15:00.283Z,10.8
2022-10-05T16:20:00.267Z,10.7
2022-10-05T16:25:00.275Z,10.7
2022-10-05T16:30:00.279Z,10.6
2022-10-05T16:35:00.265Z,10.6
2022-10-05T16:40:00.658Z,10.5
2022-10-05T16:45:00.321Z,10.5
2022-10-05T16:50:00.278Z,10.5
2022-10-05T16:55:00.267Z,10.4
2022-10-05T17:00:00.617Z,10.3
2022-10-05T17:05:00.322Z,10.3
2022-10-05T17:10:00.294Z,10.3
2022-10-05T17:15:00.276Z,10.1
2022-10-05T17:20:00.254Z,10
2022-10-05T17:25:00.628Z,10
2022-10-05T17:30:00.610Z,10
2022-10-05T17:35:00.372Z,10
2022-10-05T17:40:00.269Z,9.9
2022-10-05T17:45:00.626Z,9.8
2022-10-05T17:50:00.378Z,9.7
2022-10-05T17:55:00.371Z,9.7
2022-10-05T18:00:00.403Z,9.8
2022-10-05T18:05:00.601Z,9.7
2022-10-05T18:10:00.445Z,9.7
2022-10-05T18:15:00.277Z,9.6
2022-10-05T18:20:00.275Z,9.5
2022-10-05T18:25:00.592Z,9.6
2022-10-05T18:30:00.340Z,9.6
2022-10-05T18:35:02.100Z,9.6
2022-10-05T18:40:00.628Z,9.5
2022-10-05T18:45:00.407Z,9.4
2022-10-05T18:50:00.364Z,9.4
2022-10-05T18:55:00.273Z,9.3
2022-10-05T19:00:00.612Z,9.3
2022-10-05T19:05:00.336Z,9.3
2022-10-05T19:10:00.272Z,9.4
2022-10-05T19:15:00.270Z,9.1
2022-10-05T19:20:00.462Z,9.1
2022-10-05T19:25:00.268Z,9
2022-10-05T19:30:00.269Z,8.9
2022-10-05T19:35:00.755Z,8.8
2022-10-05T19:40:01.137Z,8.8
2022-10-05T19:45:00.238Z,8.8
2022-10-05T19:50:00.645Z,8.7
2022-10-05T19:55:00.312Z,8.6
2022-10-05T20:00:00.267Z,8.6
2022-10-05T20:05:00.274Z,8.5
2022-10-05T20:10:00.561Z,8.6
2022-10-05T20:15:00.379Z,8.5
2022-10-05T20:20:00.336Z,8.4
2022-10-05T20:25:00.372Z,8.4
2022-10-05T20:30:00.569Z,8.4
2022-10-05T20:35:00.620Z,8.3
2022-10-05T20:40:00.388Z,8.3
2022-10-05T20:45:00.579Z,8.2
2022-10-05T20:50:00.352Z,8.2
2022-10-05T20:55:00.270Z,8.2
2022-10-05T21:00:00.270Z,8.1
2022-10-05T21:05:00.342Z,8.2
2022-10-05T21:10:00.644Z,8.2
2022-10-05T21:15:00.411Z,8.3
2022-10-05T21:20:00.258Z,8.2
2022-10-05T21:25:00.326Z,8.2
2022-10-05T21:30:00.608Z,8.1
2022-10-05T21:35:00.369Z,8.1
2022-10-05T21:40:00.448Z,8
2022-10-05T21:45:00.239Z,8
2022-10-05T21:50:00.670Z,8
2022-10-05T21:55:00.359Z,8
2022-10-05T22:00:00.276Z,8
2022-10-05T22:05:00.268Z,7.9
2022-10-05T22:10:00.290Z,7.9
2022-10-05T22:15:00.590Z,7.9
2022-10-05T22:20:00.615Z,7.8
2022-10-05T22:25:00.326Z,7.9
2022-10-05T22:30:00.277Z,7.8
2022-10-05T22:35:00.636Z,7.8
2022-10-05T22:40:00.331Z,7.7
2022-10-05T22:45:00.270Z,7.7
2022-10-05T22:50:00.273Z,7.7
2022-10-05T22:55:00.546Z,7.6
2022-10-05T23:00:00.359Z,7.6
2022-10-05T23:05:00.360Z,7.6
2022-10-05T23:10:00.775Z,7.6
2022-10-05T23:15:00.573Z,7.6
2022-10-05T23:20:00.367Z,7.6
2022-10-05T23:25:00.265Z,7.6
2022-10-05T23:30:00.653Z,7.6
2022-10-05T23:35:00.350Z,7.5
2022-10-05T23:40:00.270Z,7.5
2022-10-05T23:45:00.620Z,7.5
2022-10-05T23:50:00.357Z,7.5
2022-10-05T23:55:00.272Z,7.5
